createdAt,value
2019-06-26T00:01:55.640Z,12.23
2019-06-26T00:04:24.022Z,11.97
2019-06-26T00:06:52.415Z,10.30
2019-06-26T00:09:20.806Z,12.37
2019-06-26T00:11:49.200Z,10.37
2019-06-26T00:14:17.596Z,10.50
2019-06-26T00:16:45.975Z,9.97
2019-06-26T00:19:14.364Z,10.63
2019-06-26T00:21:42.820Z,10.67
2019-06-26T00:24:11.291Z,10.40
2019-06-26T00:26:39.677Z,10.83
2019-06-26T00:29:08.069Z,12.30
2019-06-26T00:31:36.476Z,12.77
2019-06-26T00:34:04.930Z,13.73
2019-06-26T00:36:33.321Z,12.67
2019-06-26T00:39:01.711Z,12.40
2019-06-26T00:41:30.097Z,12.77
2019-06-26T00:43:58.500Z,13.10
2019-06-26T00:46:26.971Z,12.43
2019-06-26T00:48:55.371Z,12.80
2019-06-26T00:51:23.764Z,13.20
2019-06-26T00:53:52.156Z,12.63
2019-06-26T00:56:20.613Z,11.23
2019-06-26T00:58:49.024Z,11.20
2019-06-26T01:01:17.407Z,11.40
2019-06-26T01:03:46.262Z,11.93
2019-06-26T01:06:16.295Z,12.63
2019-06-26T01:08:44.695Z,14.47
2019-06-26T01:11:13.080Z,14.57
2019-06-26T01:13:54.366Z,12.00
2019-06-26T01:16:11.603Z,12.07
2019-06-26T01:18:40.026Z,12.17
2019-06-26T01:21:08.625Z,12.20
2019-06-26T01:23:36.992Z,12.87
2019-06-26T01:26:05.387Z,13.60
2019-06-26T01:28:33.796Z,13.00
2019-06-26T01:31:02.187Z,12.47
2019-06-26T01:33:30.616Z,12.50
2019-06-26T01:35:58.998Z,12.07
2019-06-26T01:38:27.403Z,12.27
2019-06-26T01:40:55.789Z,13.57
2019-06-26T01:43:24.195Z,12.13
2019-06-26T01:45:52.581Z,11.90
2019-06-26T01:48:20.985Z,12.43
2019-06-26T01:50:49.374Z,13.23
2019-06-26T01:53:17.792Z,13.27
2019-06-26T01:55:46.208Z,12.70
2019-06-26T01:58:14.602Z,12.00
2019-06-26T02:00:42.996Z,11.67
2019-06-26T02:03:11.385Z,12.60
2019-06-26T02:05:39.787Z,13.17
2019-06-26T02:08:08.287Z,13.10
2019-06-26T02:10:36.656Z,12.47
2019-06-26T02:13:05.050Z,11.83
2019-06-26T02:15:33.450Z,13.03
2019-06-26T02:18:01.845Z,13.40
2019-06-26T02:20:30.265Z,12.10
2019-06-26T02:22:58.658Z,12.17
2019-06-26T02:25:27.051Z,12.70
2019-06-26T02:27:55.525Z,12.77
2019-06-26T02:30:23.926Z,13.17
2019-06-26T02:32:52.373Z,12.07
2019-06-26T02:35:20.767Z,12.10
2019-06-26T02:37:49.153Z,11.77
2019-06-26T02:40:18.007Z,12.27
2019-06-26T02:42:46.394Z,12.90
2019-06-26T02:45:15.232Z,12.13
2019-06-26T02:47:43.619Z,11.50
2019-06-26T02:50:12.284Z,12.97
2019-06-26T02:52:40.654Z,12.03
2019-06-26T02:55:09.404Z,12.00
2019-06-26T02:57:37.824Z,13.90
2019-06-26T03:00:07.074Z,13.17
2019-06-26T03:02:35.499Z,12.30
2019-06-26T03:05:06.046Z,12.67
2019-06-26T03:07:34.431Z,12.23
2019-06-26T03:10:02.941Z,14.93
2019-06-26T03:12:31.336Z,13.07
2019-06-26T03:15:08.766Z,13.63
2019-06-26T03:17:29.854Z,12.37
2019-06-26T03:19:58.245Z,15.17
2019-06-26T03:22:26.667Z,12.80
2019-06-26T03:24:55.043Z,12.70
2019-06-26T03:27:23.711Z,12.50
2019-06-26T03:29:52.164Z,13.13
2019-06-26T03:32:20.580Z,14.03
2019-06-26T03:34:48.940Z,12.63
2019-06-26T03:37:17.337Z,13.00
2019-06-26T03:39:45.759Z,14.40
2019-06-26T03:42:14.222Z,13.07
2019-06-26T03:44:42.842Z,13.83
2019-06-26T03:47:11.269Z,15.20
2019-06-26T03:49:39.745Z,12.93
2019-06-26T03:52:08.193Z,12.87
2019-06-26T03:54:36.630Z,14.47
2019-06-26T03:57:05.177Z,13.70
2019-06-26T03:59:33.635Z,14.20
2019-06-26T04:02:02.044Z,14.47
2019-06-26T04:04:30.432Z,15.37
2019-06-26T04:06:58.890Z,13.67
2019-06-26T04:09:27.320Z,13.43
2019-06-26T04:11:55.765Z,20.13
2019-06-26T04:14:24.201Z,14.37
2019-06-26T04:16:52.594Z,13.43
2019-06-26T04:19:21.000Z,13.23
2019-06-26T04:21:49.393Z,13.97
2019-06-26T04:24:17.794Z,14.00
2019-06-26T04:26:46.275Z,13.20
2019-06-26T04:29:14.691Z,12.83
2019-06-26T04:31:43.080Z,14.53
2019-06-26T04:34:11.485Z,14.60
2019-06-26T04:36:39.904Z,16.27
2019-06-26T04:39:08.398Z,14.77
2019-06-26T04:41:36.876Z,15.90
2019-06-26T04:44:05.353Z,16.57
2019-06-26T04:46:33.976Z,15.63
2019-06-26T04:49:02.420Z,14.83
2019-06-26T04:51:30.856Z,16.50
2019-06-26T04:53:59.251Z,16.33
2019-06-26T04:56:27.685Z,16.23
2019-06-26T04:58:56.086Z,15.50
2019-06-26T05:01:24.594Z,17.90
2019-06-26T05:03:52.988Z,16.23
2019-06-26T05:06:21.406Z,14.97
2019-06-26T05:08:49.841Z,14.50
2019-06-26T05:11:18.227Z,20.23
2019-06-26T05:13:46.633Z,16.27
2019-06-26T05:16:19.949Z,16.70
2019-06-26T05:18:45.207Z,17.02
2019-06-26T05:21:13.624Z,15.67
2019-06-26T05:23:42.022Z,15.43
2019-06-26T05:26:10.435Z,16.13
2019-06-26T05:28:38.840Z,16.00
2019-06-26T05:31:07.233Z,15.47
2019-06-26T05:33:35.661Z,18.70
2019-06-26T05:36:04.262Z,18.13
2019-06-26T05:38:32.663Z,16.20
2019-06-26T05:41:01.080Z,16.77
2019-06-26T05:43:29.491Z,17.50
2019-06-26T05:45:57.881Z,16.87
2019-06-26T05:48:26.363Z,18.70
2019-06-26T05:50:54.789Z,18.27
2019-06-26T05:53:23.201Z,16.85
2019-06-26T05:55:51.605Z,16.37
2019-06-26T05:58:20.047Z,17.77
2019-06-26T06:00:48.449Z,16.33
2019-06-26T06:03:16.898Z,15.47
2019-06-26T06:05:45.381Z,15.60
2019-06-26T06:08:13.830Z,16.10
2019-06-26T06:10:43.474Z,15.57
2019-06-26T06:13:12.079Z,16.60
2019-06-26T06:15:40.635Z,17.73
2019-06-26T06:18:09.058Z,14.80
2019-06-26T06:20:39.388Z,18.73
2019-06-26T06:23:07.847Z,16.10
2019-06-26T06:25:36.358Z,16.87
2019-06-26T06:28:04.819Z,20.72
2019-06-26T06:30:33.245Z,17.77
2019-06-26T06:33:01.660Z,14.87
2019-06-26T06:35:30.049Z,18.37
2019-06-26T06:37:58.451Z,14.07
2019-06-26T06:40:26.912Z,16.23
2019-06-26T06:42:55.371Z,17.20
2019-06-26T06:45:23.921Z,15.08
2019-06-26T06:47:52.305Z,17.23
2019-06-26T06:50:20.815Z,16.80
2019-06-26T06:52:49.217Z,16.82
2019-06-26T06:55:17.881Z,19.27
2019-06-26T06:57:46.274Z,16.15
2019-06-26T07:00:15.311Z,16.17
2019-06-26T07:02:43.757Z,17.07
2019-06-26T07:05:12.434Z,19.05
2019-06-26T07:07:40.840Z,18.17
2019-06-26T07:10:09.416Z,21.10
2019-06-26T07:12:37.811Z,18.25
2019-06-26T07:15:08.555Z,20.08
2019-06-26T07:17:37.028Z,15.40
2019-06-26T07:20:06.134Z,16.40
2019-06-26T07:22:34.557Z,18.90
2019-06-26T07:25:03.037Z,17.90
2019-06-26T07:27:31.424Z,18.25
2019-06-26T07:29:59.828Z,15.70
2019-06-26T07:32:28.253Z,16.50
2019-06-26T07:34:56.645Z,16.42
2019-06-26T07:37:25.053Z,16.27
2019-06-26T07:39:56.953Z,16.48
2019-06-26T07:42:23.613Z,16.15
2019-06-26T07:44:52.044Z,18.70
2019-06-26T07:47:23.435Z,15.65
2019-06-26T07:49:50.862Z,16.23
2019-06-26T07:52:19.303Z,15.58
2019-06-26T07:54:47.691Z,16.23
2019-06-26T07:57:16.114Z,15.10
2019-06-26T07:59:44.576Z,15.93
2019-06-26T08:02:12.999Z,18.05
2019-06-26T08:04:41.411Z,15.72
2019-06-26T08:07:09.829Z,14.28
2019-06-26T08:09:38.215Z,14.80
2019-06-26T08:12:06.617Z,14.53
2019-06-26T08:14:35.060Z,15.58
2019-06-26T08:17:03.484Z,15.38
2019-06-26T08:19:31.898Z,15.63
2019-06-26T08:22:00.309Z,14.93
2019-06-26T08:24:28.694Z,15.75
2019-06-26T08:26:57.135Z,17.17
2019-06-26T08:29:25.551Z,15.50
2019-06-26T08:31:53.993Z,16.07
2019-06-26T08:34:22.392Z,15.58
2019-06-26T08:36:50.877Z,15.58
2019-06-26T08:39:19.366Z,16.50
2019-06-26T08:41:48.043Z,17.00
2019-06-26T08:44:18.781Z,16.62
2019-06-26T08:46:47.390Z,18.05
2019-06-26T08:49:25.500Z,15.18
2019-06-26T08:51:48.393Z,18.30
2019-06-26T08:54:16.912Z,16.25
2019-06-26T08:56:48.544Z,18.12
2019-06-26T08:59:20.333Z,16.23
2019-06-26T09:01:52.748Z,15.05
2019-06-26T09:04:23.430Z,15.45
2019-06-26T09:06:56.343Z,16.10
2019-06-26T09:09:24.819Z,16.17
2019-06-26T09:11:57.884Z,15.68
2019-06-26T13:07:30.967Z,9.20
2019-06-26T13:09:59.616Z,10.98
2019-06-26T13:12:28.121Z,12.13
2019-06-26T13:14:56.756Z,11.00
2019-06-26T13:17:27.976Z,10.55
2019-06-26T13:20:01.376Z,14.43
2019-06-26T13:22:32.529Z,10.98
2019-06-26T13:25:06.275Z,10.68
2019-06-26T13:27:37.850Z,12.05
2019-06-26T13:30:11.964Z,12.30
2019-06-26T13:32:45.279Z,13.95
2019-06-26T13:35:16.235Z,8.85
2019-06-26T13:37:44.686Z,8.85
2019-06-26T13:40:13.608Z,11.95
2019-06-26T13:42:42.048Z,9.83
2019-06-26T13:45:11.016Z,9.53
2019-06-26T13:47:39.460Z,11.75
2019-06-26T13:50:08.227Z,8.98
2019-06-26T13:52:36.697Z,12.53
2019-06-26T13:55:06.098Z,9.78
2019-06-26T13:57:34.568Z,10.72
2019-06-26T14:00:03.942Z,11.12
2019-06-26T14:02:35.497Z,11.38
2019-06-26T20:38:19.631Z,13.75
2019-06-26T20:40:48.029Z,17.40
2019-06-26T20:43:16.429Z,16.95
2019-06-26T20:45:44.824Z,15.90
2019-06-26T20:48:13.298Z,14.43
2019-06-26T20:50:41.691Z,16.42
2019-06-26T20:53:10.086Z,15.13
2019-06-26T20:55:38.471Z,14.90
2019-06-26T20:58:06.900Z,17.17
2019-06-26T21:00:35.286Z,16.23
2019-06-26T21:03:03.696Z,12.40
2019-06-26T21:05:32.070Z,16.42
2019-06-26T21:08:00.454Z,16.95
2019-06-26T21:10:28.858Z,15.28
2019-06-26T21:12:57.237Z,14.10
2019-06-26T21:15:25.635Z,17.82
2019-06-26T21:17:54.022Z,16.80
2019-06-26T21:20:22.414Z,15.13
2019-06-26T21:22:50.798Z,17.00
2019-06-26T21:25:19.846Z,17.17
2019-06-26T21:27:48.338Z,15.03
2019-06-26T21:30:17.111Z,16.32
2019-06-26T21:32:45.501Z,16.10
2019-06-26T21:35:13.900Z,18.25
2019-06-26T21:37:42.294Z,15.48
2019-06-26T21:40:10.965Z,15.65
2019-06-26T21:42:39.356Z,19.23
2019-06-26T21:45:08.095Z,17.77
2019-06-26T21:47:36.489Z,16.60
2019-06-26T21:50:07.989Z,15.13
2019-06-26T21:52:36.380Z,15.65
2019-06-26T21:55:05.822Z,19.37
2019-06-26T21:57:34.284Z,16.95
2019-06-26T22:00:02.682Z,17.48
2019-06-26T22:02:31.142Z,19.15
2019-06-26T22:04:59.631Z,20.57
2019-06-26T22:07:28.248Z,15.32
2019-06-26T22:09:56.757Z,20.70
2019-06-26T22:12:25.129Z,17.50
2019-06-26T22:14:53.523Z,16.75
2019-06-26T22:17:21.920Z,17.80
2019-06-26T22:19:50.315Z,15.08
2019-06-26T22:22:18.720Z,17.30
2019-06-26T22:24:47.114Z,18.98
2019-06-26T22:27:16.061Z,13.30
2019-06-26T22:29:44.487Z,20.15
2019-06-26T22:32:12.895Z,18.25
2019-06-26T22:34:41.284Z,15.78
2019-06-26T22:37:10.286Z,16.30
2019-06-26T22:39:38.677Z,14.80
2019-06-26T22:42:07.096Z,18.27
2019-06-26T22:44:35.477Z,16.52
2019-06-26T22:47:03.876Z,19.73
2019-06-26T22:49:32.291Z,17.35
2019-06-26T22:52:00.710Z,17.48
2019-06-26T22:54:29.097Z,17.15
2019-06-26T22:56:57.508Z,17.62
2019-06-26T22:59:25.916Z,17.87
2019-06-26T23:01:54.331Z,17.12
2019-06-26T23:04:22.733Z,17.45
2019-06-26T23:06:51.165Z,17.45
2019-06-26T23:09:19.556Z,18.23
2019-06-26T23:11:47.964Z,16.25
2019-06-26T23:14:16.849Z,15.70
2019-06-26T23:16:45.347Z,17.62
2019-06-26T23:19:14.990Z,16.37
2019-06-26T23:21:43.606Z,20.23
2019-06-26T23:24:12.006Z,13.13
2019-06-26T23:26:40.413Z,19.45
2019-06-26T23:29:08.810Z,14.70
2019-06-26T23:31:37.255Z,14.53
2019-06-26T23:34:05.730Z,13.68
2019-06-26T23:36:34.129Z,19.48
2019-06-26T23:39:02.790Z,21.65
2019-06-26T23:41:31.253Z,17.42
2019-06-26T23:43:59.726Z,19.60
2019-06-26T23:46:28.150Z,15.83
2019-06-26T23:48:56.555Z,14.18
2019-06-26T23:51:24.948Z,20.72
2019-06-26T23:53:53.355Z,18.45
2019-06-26T23:56:21.752Z,20.12
2019-06-26T23:58:50.226Z,15.90
